createdAt,value
2023-02-25T00:02:04.620Z,98842.95
2023-02-25T00:04:34.684Z,98847.33
2023-02-25T00:07:04.809Z,98865.03
2023-02-25T00:09:34.742Z,98862.30
2023-02-25T00:12:04.853Z,98844.06
2023-02-25T00:14:34.870Z,98829.94
2023-02-25T00:17:04.843Z,98840.84
2023-02-25T00:19:34.844Z,98843.03
2023-02-25T00:22:04.775Z,98840.84
2023-02-25T00:24:35.431Z,98848.39
2023-02-25T00:27:05.425Z,98856.23
2023-02-25T00:29:35.638Z,98848.06
2023-02-25T00:32:08.361Z,98852.16
2023-02-25T00:34:38.522Z,98852.16
2023-02-25T00:37:08.402Z,98840.13
2023-02-25T00:39:44.478Z,98839.84
2023-02-25T00:42:18.127Z,98838.69
2023-02-25T00:44:51.941Z,98832.08
2023-02-25T00:47:25.872Z,98824.98
2023-02-25T00:49:55.898Z,98830.96
2023-02-25T00:52:25.962Z,98830.64
2023-02-25T00:54:55.839Z,98830.34
2023-02-25T00:57:25.841Z,98827.00
2023-02-25T00:59:55.817Z,98830.50
2023-02-25T01:02:25.784Z,98837.30
2023-02-25T01:04:55.852Z,98835.61
2023-02-25T01:07:28.336Z,98824.96
2023-02-25T01:10:01.451Z,98834.70
2023-02-25T01:12:32.236Z,98817.09
2023-02-25T01:15:03.200Z,98835.67
2023-02-25T01:17:33.099Z,98842.78
2023-02-25T01:20:04.195Z,98836.27
2023-02-25T01:22:34.113Z,98836.50
2023-02-25T01:25:03.984Z,98846.42
2023-02-25T01:27:33.876Z,98846.75
2023-02-25T01:30:03.845Z,98837.72
2023-02-25T01:32:33.868Z,98836.68
2023-02-25T01:35:03.965Z,98833.72
2023-02-25T01:37:33.829Z,98829.13
2023-02-25T01:40:05.096Z,98835.94
2023-02-25T01:42:35.008Z,98838.95
2023-02-25T01:45:22.490Z,98850.77
2023-02-25T01:48:03.598Z,98862.28
2023-02-25T01:50:41.778Z,98875.16
2023-02-25T01:53:11.665Z,98879.25
2023-02-25T01:55:41.738Z,98867.82
2023-02-25T01:58:11.633Z,98855.11
2023-02-25T02:00:43.871Z,98851.32
2023-02-25T02:03:15.242Z,98834.53
2023-02-25T02:05:59.782Z,98829.94
2023-02-25T02:08:29.360Z,98858.63
2023-02-25T02:10:59.700Z,98862.72
2023-02-25T02:13:32.362Z,98874.00
2023-02-25T02:16:23.474Z,98883.53
2023-02-25T02:18:56.494Z,98883.83
2023-02-25T02:21:47.148Z,98878.70
2023-02-25T02:24:40.705Z,98885.81
2023-02-25T02:27:15.169Z,98889.45
2023-02-25T02:30:01.844Z,98887.02
2023-02-25T02:32:46.599Z,98888.17
2023-02-25T02:35:36.675Z,98896.14
2023-02-25T02:38:18.371Z,98900.31
2023-02-25T02:41:16.378Z,98906.34
2023-02-25T02:43:56.522Z,98895.24
2023-02-25T02:46:27.658Z,98905.70
2023-02-25T02:49:02.791Z,98911.14
2023-02-25T02:51:49.834Z,98913.25
2023-02-25T02:54:19.744Z,98903.63
2023-02-25T02:56:50.069Z,98906.14
2023-02-25T02:59:25.757Z,98912.42
2023-02-25T03:02:01.190Z,98921.42
2023-02-25T03:04:31.839Z,98916.72
2023-02-25T03:07:04.927Z,98923.23
2023-02-25T03:09:37.581Z,98914.44
2023-02-25T03:12:07.602Z,98909.77
2023-02-25T03:14:38.755Z,98914.35
2023-02-25T03:17:11.809Z,98906.50
2023-02-25T03:19:53.025Z,98897.17
2023-02-25T03:22:26.633Z,98912.69
2023-02-25T03:25:01.669Z,98906.09
2023-02-25T03:27:40.788Z,98907.16
2023-02-25T03:30:14.348Z,98913.34
2023-02-25T03:32:49.320Z,98911.07
2023-02-25T03:35:20.757Z,98913.26
2023-02-25T03:37:52.334Z,98923.03
2023-02-25T03:40:22.511Z,98923.56
2023-02-25T03:42:55.216Z,98934.67
2023-02-25T03:45:25.495Z,98929.46
2023-02-25T03:47:57.759Z,98920.42
2023-02-25T03:50:34.505Z,98907.58
2023-02-25T03:53:04.923Z,98916.78
2023-02-25T03:55:34.926Z,98918.39
2023-02-25T03:58:04.741Z,98906.34
2023-02-25T04:00:35.677Z,98907.70
2023-02-25T04:03:05.708Z,98919.33
2023-02-25T04:05:36.839Z,98920.93
2023-02-25T04:08:08.092Z,98926.59
2023-02-25T04:10:38.177Z,98929.55
2023-02-25T04:13:08.015Z,98940.64
2023-02-25T04:15:37.887Z,98933.80
2023-02-25T04:18:07.951Z,98943.81
2023-02-25T04:20:37.817Z,98949.16
2023-02-25T04:23:07.739Z,98951.80
2023-02-25T04:25:38.302Z,98966.69
2023-02-25T04:28:08.256Z,98968.48
2023-02-25T04:30:38.248Z,98969.22
2023-02-25T04:33:08.294Z,98965.37
2023-02-25T04:35:38.145Z,98946.75
2023-02-25T04:38:09.192Z,98944.76
2023-02-25T04:40:39.331Z,98931.88
2023-02-25T04:43:10.564Z,98936.41
2023-02-25T04:45:40.379Z,98936.61
2023-02-25T04:48:10.376Z,98934.33
2023-02-25T04:50:40.424Z,98920.95
2023-02-25T04:53:10.260Z,98906.91
2023-02-25T04:55:40.237Z,98914.95
2023-02-25T04:58:10.353Z,98921.17
2023-02-25T05:00:42.493Z,98914.77
2023-02-25T05:03:12.388Z,98903.58
2023-02-25T05:05:42.261Z,98901.30
2023-02-25T05:08:12.094Z,98896.06
2023-02-25T05:10:42.053Z,98886.97
2023-02-25T05:13:11.912Z,98890.46
2023-02-25T05:15:41.754Z,98884.92
2023-02-25T05:18:11.824Z,98891.62
2023-02-25T05:20:47.936Z,98887.75
2023-02-25T05:23:17.877Z,98884.11
2023-02-25T05:25:47.806Z,98882.45
2023-02-25T05:28:17.815Z,98876.58
2023-02-25T05:30:47.795Z,98886.34
2023-02-25T05:33:18.453Z,98909.66
2023-02-25T05:35:48.337Z,98925.59
2023-02-25T05:38:18.252Z,98912.72
2023-02-25T05:40:48.127Z,98921.84
2023-02-25T05:43:17.963Z,98932.30
2023-02-25T05:45:49.172Z,98913.69
2023-02-25T05:48:19.054Z,98906.28
2023-02-25T05:50:50.233Z,98902.61
2023-02-25T05:53:20.664Z,98930.03
2023-02-25T05:55:51.013Z,98904.09
2023-02-25T05:58:20.863Z,98898.03
2023-02-25T06:00:50.783Z,98889.48
2023-02-25T06:03:20.718Z,98892.92
2023-02-25T06:05:50.612Z,98893.36
2023-02-25T06:08:20.450Z,98896.70
2023-02-25T06:10:50.390Z,98899.42
2023-02-25T06:13:20.311Z,98890.13
2023-02-25T06:15:52.282Z,98880.81
2023-02-25T06:18:22.282Z,98880.19
2023-02-25T06:20:55.038Z,98895.87
2023-02-25T06:23:24.867Z,98899.52
2023-02-25T06:25:54.757Z,98904.34
2023-02-25T06:28:26.817Z,98898.17
2023-02-25T06:30:56.925Z,98890.55
2023-02-25T06:33:27.066Z,98897.55
2023-02-25T06:35:57.054Z,98903.17
2023-02-25T06:38:26.951Z,98895.45
2023-02-25T06:40:56.866Z,98895.67
2023-02-25T06:43:29.146Z,98899.31
2023-02-25T06:45:59.728Z,98895.47
2023-02-25T06:48:30.805Z,98899.24
2023-02-25T06:51:02.670Z,98884.70
2023-02-25T06:53:33.370Z,98892.25
2023-02-25T06:56:03.978Z,98898.10
2023-02-25T06:58:34.100Z,98901.55
2023-02-25T07:01:05.353Z,98894.42
2023-02-25T07:03:35.695Z,98888.05
2023-02-25T07:06:06.123Z,98887.64
2023-02-25T07:08:36.365Z,98882.30
2023-02-25T07:11:22.535Z,98884.72
2023-02-25T07:13:52.412Z,98875.93
2023-02-25T07:16:23.228Z,98872.08
2023-02-25T07:18:55.855Z,98880.95
2023-02-25T07:21:24.962Z,98909.06
2023-02-25T07:23:54.916Z,98898.20
2023-02-25T07:26:26.281Z,98868.22
2023-02-25T07:28:57.753Z,98877.39
2023-02-25T07:31:28.162Z,98882.22
2023-02-25T07:33:58.391Z,98874.46
2023-02-25T07:36:29.250Z,98871.87
2023-02-25T07:39:07.915Z,98890.23
2023-02-25T07:41:38.001Z,98896.39
2023-02-25T07:44:07.914Z,98884.92
2023-02-25T07:46:37.753Z,98880.73
2023-02-25T07:49:07.685Z,98891.80
2023-02-25T07:51:37.496Z,98889.30
2023-02-25T07:54:07.458Z,98886.11
2023-02-25T07:56:37.368Z,98872.43
2023-02-25T07:59:07.211Z,98866.39
2023-02-25T08:01:38.562Z,98864.40
2023-02-25T08:04:09.908Z,98883.82
2023-02-25T08:06:40.488Z,98883.82
2023-02-25T08:09:11.790Z,98862.83
2023-02-25T08:11:41.788Z,98842.99
2023-02-25T08:14:11.651Z,98827.73
2023-02-25T08:16:41.488Z,98836.41
2023-02-25T08:19:11.348Z,98852.91
2023-02-25T08:21:41.260Z,98854.57
2023-02-25T08:24:11.244Z,98840.36
2023-02-25T08:26:41.877Z,98836.20
2023-02-25T08:29:11.718Z,98824.63
2023-02-25T08:31:41.791Z,98808.34
2023-02-25T08:34:12.558Z,98817.09
2023-02-25T08:36:42.500Z,98824.70
2023-02-25T08:39:12.368Z,98815.65
2023-02-25T08:41:42.292Z,98809.99
2023-02-25T08:44:12.168Z,98799.99
2023-02-25T08:46:42.137Z,98793.28
2023-02-25T08:49:12.459Z,98801.56
2023-02-25T08:51:42.307Z,98784.98
2023-02-25T08:54:13.748Z,98782.47
2023-02-25T08:56:45.163Z,98815.69
2023-02-25T08:59:16.507Z,98813.99
2023-02-25T09:01:46.443Z,98789.66
2023-02-25T09:04:20.971Z,98776.52
2023-02-25T09:06:50.036Z,98799.08
2023-02-25T09:09:20.079Z,98796.89
2023-02-25T09:11:49.954Z,98805.86
2023-02-25T09:14:19.831Z,98809.11
2023-02-25T09:16:51.236Z,98797.61
2023-02-25T09:19:21.510Z,98792.08
2023-02-25T09:21:51.327Z,98791.25
2023-02-25T09:24:21.163Z,98791.97
2023-02-25T09:26:50.976Z,98794.39
2023-02-25T09:29:20.794Z,98783.72
2023-02-25T09:31:50.975Z,98774.41
2023-02-25T09:34:21.120Z,98763.75
2023-02-25T09:36:50.963Z,98776.50
2023-02-25T09:39:20.649Z,98786.72
2023-02-25T09:42:01.017Z,98799.36
2023-02-25T09:44:45.182Z,98801.24
2023-02-25T09:47:26.759Z,98792.99
2023-02-25T09:49:59.625Z,98785.88
2023-02-25T09:52:35.468Z,98777.12
2023-02-25T09:55:14.524Z,98765.64
2023-02-25T09:57:44.448Z,98767.72
2023-02-25T10:00:19.273Z,98766.55
2023-02-25T10:02:54.821Z,98773.56
2023-02-25T10:05:34.133Z,98771.91
2023-02-25T10:08:17.423Z,98762.08
2023-02-25T10:11:04.797Z,98770.02
2023-02-25T10:13:55.058Z,98787.44
2023-02-25T10:16:36.911Z,98777.74
2023-02-25T10:19:35.239Z,98778.88
2023-02-25T10:22:17.576Z,98764.17
2023-02-25T10:25:02.204Z,98761.87
2023-02-25T10:27:33.196Z,98761.87
2023-02-25T10:30:18.760Z,98752.47
2023-02-25T10:32:49.763Z,98746.41
2023-02-25T10:35:27.534Z,98752.28
2023-02-25T10:37:57.369Z,98774.48
2023-02-25T10:40:30.901Z,98770.12
2023-02-25T10:43:03.437Z,98781.72
2023-02-25T10:45:33.958Z,98781.48
2023-02-25T10:48:16.113Z,98768.77
2023-02-25T10:50:46.588Z,98771.16
2023-02-25T10:53:19.946Z,98768.35
2023-02-25T10:55:53.534Z,98766.08
2023-02-25T10:58:35.444Z,98757.73
2023-02-25T11:01:19.112Z,98767.41
2023-02-25T11:04:05.261Z,98764.91
2023-02-25T11:06:38.906Z,98784.25
2023-02-25T11:09:23.460Z,98806.91
2023-02-25T11:12:01.311Z,98788.92
2023-02-25T11:14:34.659Z,98787.56
2023-02-25T11:17:16.344Z,98787.56
2023-02-25T11:19:48.313Z,98790.08
2023-02-25T11:22:23.223Z,98795.31
2023-02-25T11:25:03.726Z,98798.86
2023-02-25T11:27:41.908Z,98796.97
2023-02-25T11:30:17.592Z,98797.27
2023-02-25T11:32:49.888Z,98795.09
2023-02-25T11:35:22.084Z,98786.41
2023-02-25T11:37:53.398Z,98801.34
2023-02-25T11:40:30.791Z,98800.09
2023-02-25T11:43:09.026Z,98784.73
2023-02-25T11:45:41.176Z,98777.22
2023-02-25T11:48:22.698Z,98770.53
2023-02-25T11:51:04.048Z,98785.77
2023-02-25T11:53:54.026Z,98788.39
2023-02-25T11:56:46.962Z,98782.42
2023-02-25T11:59:41.732Z,98778.25
2023-02-25T12:02:42.806Z,98780.01
2023-02-25T12:05:40.903Z,98776.34
2023-02-25T12:08:19.612Z,98780.84
2023-02-25T12:10:57.983Z,98773.72
2023-02-25T12:13:51.751Z,98769.61
2023-02-25T12:16:24.881Z,98775.23
2023-02-25T12:19:30.704Z,98795.09
2023-02-25T12:22:16.549Z,98790.88
2023-02-25T12:25:05.231Z,98781.39
2023-02-25T12:27:55.528Z,98787.84
2023-02-25T12:30:30.863Z,98795.86
2023-02-25T12:33:40.494Z,98794.99
2023-02-25T12:36:47.386Z,98789.36
2023-02-25T12:39:28.767Z,98786.39
2023-02-25T12:42:13.272Z,98787.11
2023-02-25T12:44:51.982Z,98776.41
2023-02-25T12:47:25.920Z,98785.26
2023-02-25T12:50:01.417Z,98783.99
2023-02-25T12:52:35.807Z,98787.63
2023-02-25T12:55:29.518Z,98785.86
2023-02-25T12:58:29.207Z,98783.00
2023-02-25T13:01:13.478Z,98781.20
2023-02-25T13:04:02.219Z,98783.56
2023-02-25T13:06:58.478Z,98789.63
2023-02-25T13:09:42.942Z,98797.88
2023-02-25T13:12:33.731Z,98797.14
2023-02-25T13:15:15.052Z,98803.18
2023-02-25T13:18:07.746Z,98814.16
2023-02-25T13:20:48.940Z,98807.27
2023-02-25T13:23:46.236Z,98800.84
2023-02-25T13:26:33.820Z,98798.22
2023-02-25T13:29:09.435Z,98810.80
2023-02-25T13:31:59.917Z,98808.37
2023-02-25T13:34:48.494Z,98816.62
2023-02-25T13:37:37.270Z,98828.13
2023-02-25T13:40:35.224Z,98823.28
2023-02-25T13:43:40.650Z,98824.73
2023-02-25T13:46:17.442Z,98832.69
2023-02-25T13:48:58.792Z,98842.22
2023-02-25T13:52:02.516Z,98837.69
2023-02-25T13:54:38.554Z,98823.34
2023-02-25T13:57:29.006Z,98840.06
2023-02-25T14:00:21.022Z,98830.61
2023-02-25T14:03:02.275Z,98817.30
2023-02-25T14:06:02.583Z,98819.52
2023-02-25T14:09:06.739Z,98823.36
2023-02-25T14:12:11.714Z,98820.96
2023-02-25T14:14:32.351Z,98819.16
2023-02-25T14:17:13.941Z,98817.02
2023-02-25T14:19:55.473Z,98811.16
2023-02-25T14:22:53.821Z,98797.83
2023-02-25T14:25:32.213Z,98790.81
2023-02-25T14:28:13.471Z,98791.94
2023-02-25T14:31:05.766Z,98798.45
2023-02-25T14:33:58.438Z,98807.53
2023-02-25T14:36:33.874Z,98800.27
2023-02-25T14:39:09.313Z,98811.46
2023-02-25T14:42:16.036Z,98820.17
2023-02-25T14:44:48.866Z,98797.02
2023-02-25T14:47:21.381Z,98791.36
2023-02-25T14:49:56.824Z,98798.99
2023-02-25T14:52:38.454Z,98805.27
2023-02-25T14:55:26.242Z,98814.27
2023-02-25T14:58:17.087Z,98797.39
2023-02-25T15:00:56.257Z,98797.09
2023-02-25T15:03:48.221Z,98783.19
2023-02-25T15:06:47.368Z,98769.56
2023-02-25T15:09:51.409Z,98773.66
2023-02-25T15:12:35.818Z,98774.48
2023-02-25T15:15:27.041Z,98769.48
2023-02-25T15:18:32.654Z,98763.41
2023-02-25T15:21:04.468Z,98765.31
2023-02-25T15:23:46.815Z,98754.62
2023-02-25T15:26:28.308Z,98757.59
2023-02-25T15:28:58.336Z,98766.35
2023-02-25T15:31:34.928Z,98774.23
2023-02-25T15:34:26.544Z,98783.14
2023-02-25T15:36:59.098Z,98784.75
2023-02-25T15:39:46.799Z,98786.64
2023-02-25T15:42:17.132Z,98786.31
2023-02-25T15:44:47.377Z,98803.19
2023-02-25T15:47:27.782Z,98799.02
2023-02-25T15:49:58.234Z,98793.28
2023-02-25T15:52:57.345Z,98798.94
2023-02-25T15:55:35.789Z,98796.45
2023-02-25T15:58:07.353Z,98794.77
2023-02-25T16:00:52.645Z,98795.83
2023-02-25T16:03:37.585Z,98798.56
2023-02-25T16:06:09.348Z,98795.00
2023-02-25T16:08:47.829Z,98798.31
2023-02-25T16:11:42.181Z,98795.30
2023-02-25T16:14:32.544Z,98787.66
2023-02-25T16:17:11.508Z,98783.05
2023-02-25T16:19:42.285Z,98786.14
2023-02-25T16:22:20.025Z,98801.21
2023-02-25T16:24:51.829Z,98803.94
2023-02-25T16:27:27.433Z,98800.68
2023-02-25T16:30:06.384Z,98789.04
2023-02-25T16:32:39.066Z,98791.02
2023-02-25T16:35:26.714Z,98780.95
2023-02-25T16:38:26.492Z,98770.89
2023-02-25T16:40:56.463Z,98777.24
2023-02-25T16:43:31.422Z,98784.47
2023-02-25T16:46:05.760Z,98789.67
2023-02-25T16:48:40.988Z,98788.39
2023-02-25T16:51:16.621Z,98774.48
2023-02-25T16:53:47.306Z,98769.56
2023-02-25T16:56:24.244Z,98765.77
2023-02-25T16:59:08.445Z,98758.13
2023-02-25T17:01:38.232Z,98760.33
2023-02-25T17:04:31.852Z,98751.61
2023-02-25T17:07:23.098Z,98756.02
2023-02-25T17:09:54.068Z,98761.15
2023-02-25T17:12:39.422Z,98755.41
2023-02-25T17:15:12.101Z,98759.20
2023-02-25T17:17:42.327Z,98759.20
2023-02-25T17:20:17.782Z,98758.34
2023-02-25T17:22:47.726Z,98755.62
2023-02-25T17:25:18.343Z,98755.62
2023-02-25T17:27:49.502Z,98752.60
2023-02-25T17:30:45.206Z,98765.07
2023-02-25T17:33:26.908Z,98762.88
2023-02-25T17:36:03.930Z,98759.86
2023-02-25T17:38:34.463Z,98760.40
2023-02-25T17:41:04.438Z,98755.16
2023-02-25T17:43:39.068Z,98752.14
2023-02-25T17:46:34.504Z,98767.13
2023-02-25T17:49:08.337Z,98765.97
2023-02-25T17:51:39.601Z,98758.05
2023-02-25T17:54:14.594Z,98753.42
2023-02-25T17:56:46.709Z,98746.29
2023-02-25T17:59:19.280Z,98743.56
2023-02-25T18:01:50.731Z,98738.36
2023-02-25T18:04:29.251Z,98738.36
2023-02-25T18:06:59.224Z,98733.45
2023-02-25T18:09:40.046Z,98730.64
2023-02-25T18:12:14.047Z,98729.28
2023-02-25T18:14:46.390Z,98720.49
2023-02-25T18:17:26.478Z,98700.89
2023-02-25T18:19:57.688Z,98692.52
2023-02-25T18:22:39.149Z,98689.80
2023-02-25T18:25:11.846Z,98695.23
2023-02-25T18:27:41.671Z,98700.77
2023-02-25T18:30:19.589Z,98693.42
2023-02-25T18:32:49.467Z,98680.09
2023-02-25T18:35:19.532Z,98677.16
2023-02-25T18:37:50.343Z,98677.53
2023-02-25T18:40:25.764Z,98661.80
2023-02-25T18:42:55.676Z,98655.37
2023-02-25T18:45:26.169Z,98646.98
2023-02-25T18:47:59.831Z,98644.25
2023-02-25T18:50:31.129Z,98632.00
2023-02-25T18:53:01.563Z,98629.27
2023-02-25T18:55:32.953Z,98613.76
2023-02-25T18:58:05.037Z,98608.31
2023-02-25T19:00:35.666Z,98602.78
2023-02-25T19:03:07.430Z,98592.79
2023-02-25T19:05:37.539Z,98587.12
2023-02-25T19:08:15.737Z,98580.83
2023-02-25T19:10:45.646Z,98574.55
2023-02-25T19:13:20.801Z,98565.84
2023-02-25T19:15:50.951Z,98559.81
2023-02-25T19:18:20.911Z,98562.83
2023-02-25T19:20:50.762Z,98561.47
2023-02-25T19:23:20.626Z,98560.03
2023-02-25T19:25:51.779Z,98558.13
2023-02-25T19:28:21.621Z,98559.81
2023-02-25T19:30:51.508Z,98567.98
2023-02-25T19:33:21.444Z,98571.17
2023-02-25T19:35:51.365Z,98568.95
2023-02-25T19:38:21.320Z,98561.31
2023-02-25T19:40:51.198Z,98561.85
2023-02-25T19:43:21.030Z,98553.14
2023-02-25T19:45:52.324Z,98555.05
2023-02-25T19:48:22.376Z,98561.03
2023-02-25T19:50:52.194Z,98551.17
2023-02-25T19:53:22.060Z,98535.16
2023-02-25T19:55:51.989Z,98537.27
2023-02-25T19:58:21.830Z,98531.20
2023-02-25T20:00:51.761Z,98533.93
2023-02-25T20:03:21.779Z,98521.09
2023-02-25T20:05:51.645Z,98524.33
2023-02-25T20:08:21.483Z,98529.27
2023-02-25T20:10:51.434Z,98518.88
2023-02-25T20:13:21.310Z,98510.42
2023-02-25T20:15:51.218Z,98504.97
2023-02-25T20:18:21.173Z,98495.16
2023-02-25T20:20:51.087Z,98494.00
2023-02-25T20:23:21.022Z,98483.94
2023-02-25T20:25:50.924Z,98485.63
2023-02-25T20:28:22.309Z,98477.66
2023-02-25T20:30:52.167Z,98479.31
2023-02-25T20:33:22.150Z,98478.27
2023-02-25T20:35:52.057Z,98480.53
2023-02-25T20:38:38.667Z,98478.09
2023-02-25T20:41:08.780Z,98473.51
2023-02-25T20:43:38.701Z,98475.98
2023-02-25T20:48:40.108Z,98471.29
2023-02-25T20:51:10.929Z,98470.68
2023-02-25T20:53:42.615Z,98464.48
2023-02-25T20:56:35.356Z,98461.28
2023-02-25T20:59:05.703Z,98474.44
2023-02-25T21:01:55.422Z,98463.83
2023-02-25T21:04:27.855Z,98468.23
2023-02-25T21:06:58.142Z,98462.79
2023-02-25T21:09:28.954Z,98462.25
2023-02-25T21:11:59.763Z,98467.70
2023-02-25T21:14:30.761Z,98465.80
2023-02-25T21:17:02.004Z,98461.42
2023-02-25T21:19:37.675Z,98461.42
2023-02-25T21:22:06.044Z,98464.44
2023-02-25T21:24:41.489Z,98449.17
2023-02-25T21:27:12.900Z,98447.27
2023-02-25T21:29:43.241Z,98437.66
2023-02-25T21:32:16.509Z,98439.63
2023-02-25T21:34:46.993Z,98434.11
2023-02-25T21:37:18.922Z,98429.49
2023-02-25T21:39:50.313Z,98433.30
2023-02-25T21:42:20.630Z,98425.13
2023-02-25T21:44:51.032Z,98408.78
2023-02-25T21:47:23.465Z,98421.54
2023-02-25T21:49:55.068Z,98422.39
2023-02-25T21:52:31.977Z,98407.63
2023-02-25T21:55:06.614Z,98409.21
2023-02-25T21:57:39.284Z,98396.12
2023-02-25T22:00:13.804Z,98381.41
2023-02-25T22:02:45.841Z,98375.13
2023-02-25T22:05:19.983Z,98386.53
2023-02-25T22:07:50.228Z,98402.88
2023-02-25T22:10:22.314Z,98394.95
2023-02-25T22:12:53.720Z,98394.41
2023-02-25T22:15:24.170Z,98410.15
2023-02-25T22:17:54.045Z,98415.84
2023-02-25T22:20:25.143Z,98408.19
2023-02-25T22:23:01.027Z,98401.63
2023-02-25T22:25:33.058Z,98387.72
2023-02-25T22:28:05.342Z,98367.80
2023-02-25T22:30:39.379Z,98357.44
2023-02-25T22:33:18.533Z,98357.98
2023-02-25T22:35:56.595Z,98352.00
2023-02-25T22:38:30.756Z,98357.69
2023-02-25T22:41:07.790Z,98361.78
2023-02-25T22:43:42.900Z,98378.34
2023-02-25T22:46:17.313Z,98385.08
2023-02-25T22:48:49.708Z,98374.47
2023-02-25T22:51:33.722Z,98360.86
2023-02-25T22:54:05.569Z,98347.56
2023-02-25T22:56:58.779Z,98323.87
2023-02-25T22:59:28.815Z,98308.14
2023-02-25T23:02:00.091Z,98291.04
2023-02-25T23:04:29.953Z,98284.80
2023-02-25T23:06:59.832Z,98281.25
2023-02-25T23:09:29.707Z,98296.30
2023-02-25T23:12:00.644Z,98308.62
2023-02-25T23:14:30.524Z,98296.65
2023-02-25T23:17:00.389Z,98304.82
2023-02-25T23:19:30.221Z,98319.30
2023-02-25T23:22:00.195Z,98315.71
2023-02-25T23:24:32.104Z,98316.03
2023-02-25T23:27:02.052Z,98307.32
2023-02-25T23:29:34.510Z,98309.76
2023-02-25T23:32:05.352Z,98311.13
2023-02-25T23:34:36.324Z,98310.87
2023-02-25T23:37:06.385Z,98316.03
2023-02-25T23:39:36.364Z,98322.30
2023-02-25T23:42:06.536Z,98332.91
2023-02-25T23:44:37.615Z,98330.69
2023-02-25T23:47:07.511Z,98326.03
2023-02-25T23:49:37.459Z,98336.93
2023-02-25T23:52:07.547Z,98331.16
2023-02-25T23:54:37.366Z,98301.74
2023-02-25T23:57:07.415Z,98285.94
2023-02-25T23:59:37.354Z,98298.73
